Time;durP1;ratioP1;P1;durP2;ratioP2;P2;SDS_P1;SDS_P2;PMS_P1;PMS_P2;Temp;Humidity;BMP_temperature;BMP_pressure;BME280_temperature;BME280_humidity;BME280_pressure;Samples;Min_cycle;Max_cycle;Signal;HPM_P1;HPM_P2
2022/05/15 00:01:27;;;;;;;9.90;9.60;;;13.10;99.90;;;;;;5001138;28;20228;-86
2022/05/15 00:03:56;;;;;;;10.47;10.17;;;13.10;99.90;;;;;;5000012;28;20244;-86
2022/05/15 00:06:25;;;;;;;10.20;9.90;;;13.10;99.90;;;;;;5000365;28;20237;-85
2022/05/15 00:08:55;;;;;;;10.23;9.93;;;13.10;99.90;;;;;;5000909;28;20236;-86
2022/05/15 00:11:25;;;;;;;10.13;9.83;;;13.10;99.90;;;;;;5000231;28;20240;-86
2022/05/15 00:14:02;;;;;;;10.03;9.73;;;13.10;99.90;;;;;;5000872;28;20225;-86
2022/05/15 00:16:32;;;;;;;10.10;9.80;;;13.10;99.90;;;;;;5000209;28;20243;-86
2022/05/15 00:19:02;;;;;;;10.20;9.90;;;13.10;99.90;;;;;;5000411;28;20275;-87
2022/05/15 00:21:31;;;;;;;10.10;9.80;;;13.10;99.90;;;;;;5000304;28;20266;-86
2022/05/15 00:24:01;;;;;;;10.00;9.70;;;13.00;99.90;;;;;;4999917;28;20233;-87
2022/05/15 00:26:30;;;;;;;10.20;9.90;;;13.00;99.90;;;;;;5000386;28;20252;-86
2022/05/15 00:29:11;;;;;;;10.30;10.00;;;12.90;99.90;;;;;;5000397;28;20242;-86
2022/05/15 00:31:39;;;;;;;10.30;10.00;;;12.90;99.90;;;;;;4982151;28;20236;-87
2022/05/15 00:34:07;;;;;;;10.27;9.97;;;12.90;99.90;;;;;;5000513;28;20252;-86
2022/05/15 00:36:36;;;;;;;10.20;9.90;;;12.80;99.90;;;;;;5006339;28;20232;-87
2022/05/15 00:39:05;;;;;;;10.40;10.10;;;12.80;99.90;;;;;;5003997;28;20236;-86
2022/05/15 00:47:09;;;;;;;10.60;10.30;;;12.60;99.90;;;;;;4997475;28;20225;-86
2022/05/15 00:49:39;;;;;;;10.50;10.20;;;12.60;99.90;;;;;;4999438;28;20417;-87
2022/05/15 00:52:17;;;;;;;10.77;10.47;;;12.50;99.90;;;;;;4999099;28;20229;-86
2022/05/15 01:00:29;;;;;;;10.60;10.30;;;12.40;99.90;;;;;;4996358;28;20225;-86
2022/05/15 01:03:07;;;;;;;10.67;10.37;;;12.30;99.90;;;;;;4999072;28;20232;-86
2022/05/15 01:08:41;;;;;;;10.63;10.33;;;12.30;99.90;;;;;;4985289;28;20292;-86
2022/05/15 01:11:20;;;;;;;10.60;10.30;;;12.20;99.90;;;;;;5002623;28;20240;-87
2022/05/15 01:13:52;;;;;;;10.60;10.30;;;12.20;99.90;;;;;;5002150;28;20264;-87
2022/05/15 01:16:27;;;;;;;10.90;10.60;;;12.10;99.90;;;;;;5002280;28;20239;-86
2022/05/15 01:22:01;;;;;;;10.90;10.60;;;12.00;99.90;;;;;;5002650;28;20225;-86
2022/05/15 01:24:32;;;;;;;11.00;10.70;;;12.00;99.90;;;;;;5003151;28;20242;-87
2022/05/15 01:30:13;;;;;;;10.60;10.30;;;11.90;99.90;;;;;;5002674;28;20232;-86
2022/05/15 01:32:43;;;;;;;10.50;10.20;;;11.90;99.90;;;;;;5009727;28;20264;-87
2022/05/15 01:35:13;;;;;;;10.87;10.57;;;11.80;99.90;;;;;;5007323;28;20295;-86
2022/05/15 01:37:52;;;;;;;10.63;10.33;;;11.80;99.90;;;;;;5002345;28;20225;-87
2022/05/15 01:40:20;;;;;;;10.50;10.20;;;11.80;99.90;;;;;;5023136;22;20326;-80
2022/05/15 01:42:48;;;;;;;10.53;10.23;;;11.80;99.90;;;;;;5024348;28;20231;-80
2022/05/15 01:45:17;;;;;;;10.70;10.40;;;11.70;99.90;;;;;;5024248;28;20240;-81
2022/05/15 01:47:45;;;;;;;10.70;10.40;;;11.70;99.90;;;;;;5024868;28;20228;-81
2022/05/15 01:50:14;;;;;;;10.87;10.57;;;11.70;99.90;;;;;;5017431;28;20237;-80
2022/05/15 01:52:43;;;;;;;10.80;10.50;;;11.70;99.90;;;;;;5005668;28;20228;-81
2022/05/15 01:55:12;;;;;;;11.00;10.70;;;11.70;99.90;;;;;;5004476;28;20221;-80
2022/05/15 01:57:40;;;;;;;11.10;10.80;;;11.70;99.90;;;;;;5004384;28;20229;-80
2022/05/15 02:00:12;;;;;;;11.10;10.80;;;11.60;99.90;;;;;;5005184;28;20237;-81
2022/05/15 02:02:47;;;;;;;11.10;10.80;;;11.50;99.90;;;;;;5004187;28;20268;-81
2022/05/15 02:05:16;;;;;;;10.90;10.60;;;11.40;99.90;;;;;;5003557;28;20303;-81
2022/05/15 02:07:54;;;;;;;10.87;10.57;;;11.30;99.90;;;;;;5004889;28;20280;-81
2022/05/15 02:10:24;;;;;;;11.17;10.87;;;11.30;99.90;;;;;;5010014;28;20295;-81
2022/05/15 02:12:53;;;;;;;11.23;10.93;;;11.20;99.90;;;;;;5008340;28;20232;-81
2022/05/15 02:15:22;;;;;;;11.60;11.20;;;11.20;99.90;;;;;;5006687;28;20258;-80
2022/05/15 02:17:52;;;;;;;10.90;10.60;;;11.20;99.90;;;;;;5005909;28;20312;-81
2022/05/15 02:20:21;;;;;;;10.87;10.57;;;11.10;99.90;;;;;;5004689;28;20237;-80
2022/05/15 02:22:53;;;;;;;11.10;10.80;;;11.10;99.90;;;;;;5005571;28;20236;-80
2022/05/15 02:25:21;;;;;;;10.93;10.63;;;11.10;99.90;;;;;;5004867;28;20268;-81
2022/05/15 02:27:50;;;;;;;10.97;10.67;;;11.00;99.90;;;;;;5005300;28;20933;-80
2022/05/15 02:30:20;;;;;;;11.07;10.77;;;10.90;99.90;;;;;;5004676;28;20241;-81
2022/05/15 02:32:49;;;;;;;11.00;10.70;;;10.90;99.90;;;;;;5005803;28;20324;-80
2022/05/15 02:35:17;;;;;;;10.77;10.47;;;10.80;99.90;;;;;;5005707;28;20270;-80
2022/05/15 02:37:49;;;;;;;10.80;10.50;;;10.80;99.90;;;;;;5004833;28;20256;-80
2022/05/15 02:40:27;;;;;;;11.00;10.70;;;10.80;99.90;;;;;;5004300;28;20240;-80
2022/05/15 02:42:56;;;;;;;10.90;10.60;;;10.70;99.90;;;;;;5004976;28;20327;-80
2022/05/15 02:45:24;;;;;;;10.77;10.47;;;10.70;99.90;;;;;;5004292;28;20247;-80
2022/05/15 02:47:54;;;;;;;10.90;10.60;;;10.70;99.90;;;;;;5003864;28;20365;-80
2022/05/15 02:53:10;;;;;;;10.90;10.60;;;10.70;99.90;;;;;;5004571;28;20229;-80
2022/05/15 02:58:28;;;;;;;11.00;10.70;;;10.60;99.90;;;;;;5002828;28;20251;-80
2022/05/15 03:00:57;;;;;;;10.90;10.60;;;10.60;99.90;;;;;;5004150;28;20324;-81
2022/05/15 03:03:26;;;;;;;11.00;10.70;;;10.60;99.90;;;;;;5003373;28;20267;-80
2022/05/15 03:05:55;;;;;;;11.13;10.80;;;10.50;99.90;;;;;;5003759;28;20236;-80
2022/05/15 03:08:25;;;;;;;11.27;10.87;;;10.50;99.90;;;;;;5003998;28;20280;-80
2022/05/15 03:10:57;;;;;;;11.07;10.77;;;10.40;99.90;;;;;;5003351;28;20233;-80
2022/05/15 03:13:25;;;;;;;11.40;11.00;;;10.40;99.90;;;;;;5003381;28;20295;-80
2022/05/15 03:15:53;;;;;;;11.37;10.97;;;10.40;99.90;;;;;;5002748;28;20241;-80
2022/05/15 03:18:22;;;;;;;11.50;11.10;;;10.40;99.90;;;;;;5004391;28;20283;-81
2022/05/15 03:20:52;;;;;;;11.40;11.00;;;10.30;99.90;;;;;;5003582;28;20237;-81
2022/05/15 03:23:21;;;;;;;11.30;10.90;;;10.30;99.90;;;;;;5003941;28;20236;-81
2022/05/15 03:25:50;;;;;;;11.33;10.93;;;10.30;99.90;;;;;;5003350;28;20238;-81
2022/05/15 03:31:07;;;;;;;11.20;10.80;;;10.30;99.90;;;;;;5002025;28;20228;-80
2022/05/15 03:33:36;;;;;;;11.30;10.90;;;10.20;99.90;;;;;;5003041;28;20237;-80
2022/05/15 03:36:10;;;;;;;11.43;11.03;;;10.20;99.90;;;;;;5002335;28;20232;-80
2022/05/15 03:38:38;;;;;;;11.70;11.30;;;10.20;99.90;;;;;;5002851;28;20260;-80
2022/05/15 03:41:07;;;;;;;10.97;10.67;;;10.10;99.90;;;;;;5003014;28;20272;-81
2022/05/15 03:43:39;;;;;;;11.37;10.97;;;10.10;99.90;;;;;;5003361;28;20276;-81
2022/05/15 03:46:08;;;;;;;11.30;10.90;;;10.00;99.90;;;;;;5003206;28;20299;-80
2022/05/15 03:48:36;;;;;;;11.30;10.90;;;10.00;99.90;;;;;;5003710;28;20229;-80
2022/05/15 03:51:05;;;;;;;11.30;10.90;;;10.00;99.90;;;;;;5003797;28;20296;-80
2022/05/15 03:53:34;;;;;;;11.00;10.70;;;10.00;99.90;;;;;;5004596;28;20232;-80
2022/05/15 03:56:03;;;;;;;11.20;10.80;;;10.00;99.90;;;;;;5004111;28;20217;-80
2022/05/15 03:58:35;;;;;;;11.00;10.70;;;10.10;99.90;;;;;;5018761;28;20225;-79
2022/05/15 04:01:12;;;;;;;11.23;10.83;;;10.10;99.90;;;;;;5018729;28;20247;-80
2022/05/15 04:03:41;;;;;;;11.43;11.03;;;10.00;99.90;;;;;;5013686;28;20212;-80
2022/05/15 04:06:11;;;;;;;11.37;10.97;;;10.00;99.90;;;;;;5018988;28;20214;-79
2022/05/15 04:08:40;;;;;;;11.33;10.93;;;10.00;99.90;;;;;;5019693;28;20213;-79
2022/05/15 04:11:09;;;;;;;11.30;10.90;;;10.00;99.90;;;;;;5010093;28;20236;-81
2022/05/15 04:13:38;;;;;;;11.00;10.70;;;10.00;99.90;;;;;;5007388;28;20240;-81
2022/05/15 04:16:11;;;;;;;11.00;10.70;;;10.00;99.90;;;;;;5007030;28;20647;-81
2022/05/15 04:18:39;;;;;;;11.27;10.87;;;10.10;99.90;;;;;;5005723;28;20260;-80
2022/05/15 04:21:07;;;;;;;11.00;10.70;;;10.10;99.90;;;;;;5004736;28;20263;-81
2022/05/15 04:23:37;;;;;;;10.90;10.60;;;10.10;99.90;;;;;;5004993;28;20236;-81
2022/05/15 04:26:06;;;;;;;11.13;10.80;;;10.10;99.90;;;;;;5004050;28;20244;-80
2022/05/15 04:28:36;;;;;;;10.97;10.67;;;10.10;99.90;;;;;;5003779;28;20237;-80
2022/05/15 04:31:06;;;;;;;10.90;10.60;;;10.20;99.90;;;;;;5003874;28;20264;-80
2022/05/15 04:33:34;;;;;;;11.20;10.87;;;10.20;99.90;;;;;;5003636;28;20240;-80
2022/05/15 04:36:04;;;;;;;11.03;10.73;;;10.30;99.90;;;;;;5004704;28;20293;-81
2022/05/15 04:38:33;;;;;;;10.97;10.67;;;10.30;99.90;;;;;;5004068;28;20233;-81
2022/05/15 04:41:02;;;;;;;11.30;10.90;;;10.40;99.90;;;;;;5003515;28;20240;-81
2022/05/15 04:43:32;;;;;;;11.37;10.97;;;10.40;99.90;;;;;;5006459;28;20232;-80
2022/05/15 04:46:03;;;;;;;11.10;10.80;;;10.50;99.90;;;;;;5005987;28;20248;-80
2022/05/15 04:48:33;;;;;;;10.97;10.67;;;10.60;99.90;;;;;;5006242;28;20284;-80
2022/05/15 04:51:01;;;;;;;10.87;10.57;;;10.60;99.90;;;;;;5006215;28;20319;-80
2022/05/15 04:53:30;;;;;;;10.80;10.50;;;10.70;99.90;;;;;;5005783;28;20244;-80
2022/05/15 04:55:59;;;;;;;10.90;10.60;;;10.80;99.90;;;;;;5005445;28;20236;-79
2022/05/15 04:58:28;;;;;;;10.70;10.40;;;10.90;99.90;;;;;;5010039;28;20221;-79
2022/05/15 05:00:57;;;;;;;10.77;10.47;;;11.00;99.90;;;;;;5008403;28;20240;-80
2022/05/15 05:03:27;;;;;;;10.80;10.50;;;11.00;99.90;;;;;;5005580;28;20232;-81
2022/05/15 05:06:05;;;;;;;10.60;10.30;;;11.10;99.90;;;;;;5004876;28;20304;-81
2022/05/15 05:08:35;;;;;;;10.50;10.20;;;11.20;99.90;;;;;;5010295;28;20229;-78
2022/05/15 05:11:04;;;;;;;10.63;10.33;;;11.30;99.90;;;;;;5014594;28;20236;-78
2022/05/15 05:13:33;;;;;;;10.40;10.10;;;11.40;99.90;;;;;;5011339;28;20292;-80
2022/05/15 05:16:03;;;;;;;10.30;10.00;;;11.40;99.90;;;;;;5007903;28;20241;-81
2022/05/15 05:18:32;;;;;;;10.40;10.10;;;11.60;99.90;;;;;;5018656;28;20256;-80
2022/05/15 05:21:11;;;;;;;10.47;10.17;;;11.60;99.90;;;;;;5020464;28;20260;-80
2022/05/15 05:23:41;;;;;;;10.37;10.07;;;11.70;99.90;;;;;;5009220;28;20295;-81
2022/05/15 05:26:10;;;;;;;10.47;10.17;;;11.90;99.90;;;;;;5005447;28;20233;-79
2022/05/15 05:28:40;;;;;;;10.30;10.00;;;12.00;99.90;;;;;;5004879;28;20225;-78
2022/05/15 05:31:09;;;;;;;10.60;10.30;;;12.10;99.90;;;;;;5004897;28;20255;-78
2022/05/15 05:33:38;;;;;;;10.10;9.80;;;12.20;99.90;;;;;;5004824;28;20285;-78
2022/05/15 05:36:17;;;;;;;10.43;10.13;;;12.30;99.90;;;;;;5003959;28;20266;-79
2022/05/15 05:38:47;;;;;;;10.37;10.07;;;12.40;99.90;;;;;;5003820;28;20264;-78
2022/05/15 05:41:17;;;;;;;10.37;10.07;;;12.50;99.90;;;;;;5010484;28;20251;-78
2022/05/15 05:43:46;;;;;;;10.10;9.80;;;12.70;99.90;;;;;;5009037;28;20272;-79
2022/05/15 05:46:16;;;;;;;10.20;9.90;;;12.90;99.90;;;;;;5008280;28;20233;-79
2022/05/15 05:48:46;;;;;;;10.07;9.77;;;13.00;99.90;;;;;;5008833;28;20224;-79
2022/05/15 05:51:17;;;;;;;10.30;10.00;;;13.10;99.90;;;;;;5005173;28;20237;-80
2022/05/15 05:53:45;;;;;;;10.00;9.70;;;13.30;99.90;;;;;;5003972;28;20276;-79
2022/05/15 05:56:14;;;;;;;10.20;9.90;;;13.50;99.90;;;;;;5004981;28;20268;-79
2022/05/15 05:58:45;;;;;;;10.10;9.80;;;13.70;99.90;;;;;;5004831;28;20700;-79
2022/05/15 06:01:13;;;;;;;10.18;9.88;;;13.90;99.90;;;;;;5008450;28;20237;-79
2022/05/15 06:06:31;;;;;;;10.32;10.02;;;14.00;99.90;;;;;;5007411;28;20241;-79
2022/05/15 06:08:59;;;;;;;10.15;9.85;;;14.20;99.90;;;;;;5006798;28;20232;-78
2022/05/15 06:11:28;;;;;;;10.30;10.00;;;14.30;99.90;;;;;;5005282;28;20233;-79
2022/05/15 06:13:57;;;;;;;10.23;9.93;;;14.50;99.90;;;;;;5003861;28;20240;-79
2022/05/15 06:16:26;;;;;;;10.60;10.30;;;14.60;99.90;;;;;;5003620;28;20238;-79
2022/05/15 06:18:56;;;;;;;10.40;10.10;;;14.90;99.90;;;;;;5005136;28;20233;-79
2022/05/15 06:21:25;;;;;;;10.50;10.20;;;14.90;99.90;;;;;;5006010;28;20233;-79
2022/05/15 06:26:42;;;;;;;10.45;10.15;;;15.20;99.90;;;;;;5005237;28;20267;-79
2022/05/15 06:29:11;;;;;;;10.35;10.05;;;15.40;99.90;;;;;;5006081;28;20288;-79
2022/05/15 06:31:41;;;;;;;10.32;10.02;;;15.50;99.90;;;;;;5003818;28;20291;-79
2022/05/15 06:34:10;;;;;;;10.30;10.00;;;15.50;99.90;;;;;;5004216;28;20240;-79
2022/05/15 06:36:40;;;;;;;10.25;9.95;;;15.60;99.90;;;;;;5004070;28;20241;-79
2022/05/15 06:41:59;;;;;;;10.40;10.10;;;15.80;99.90;;;;;;5003542;28;20297;-80
2022/05/15 06:44:27;;;;;;;10.13;9.82;;;16.00;99.90;;;;;;5004871;28;20293;-79
2022/05/15 06:46:56;;;;;;;10.13;9.82;;;16.10;99.90;;;;;;5004603;28;20243;-79
2022/05/15 06:49:25;;;;;;;10.20;9.90;;;16.30;99.90;;;;;;5006458;28;20217;-78
2022/05/15 06:51:55;;;;;;;10.30;10.00;;;16.40;99.90;;;;;;5017335;28;20335;-78
2022/05/15 06:54:26;;;;;;;10.10;9.80;;;16.50;99.90;;;;;;5016936;28;20229;-77
2022/05/15 06:59:41;;;;;;;10.48;10.18;;;16.80;99.90;;;;;;5009408;28;20220;-79
2022/05/15 07:02:09;;;;;;;10.02;9.73;;;16.90;99.90;;;;;;5004726;28;20312;-79
2022/05/15 07:04:39;;;;;;;10.50;10.20;;;17.00;99.90;;;;;;5003852;28;20233;-79
2022/05/15 07:07:08;;;;;;;10.57;10.27;;;17.20;99.90;;;;;;5005078;28;20225;-80
2022/05/15 07:09:41;;;;;;;10.38;10.07;;;17.20;99.90;;;;;;5005141;28;20217;-79
2022/05/15 07:12:10;;;;;;;10.30;10.00;;;17.10;99.90;;;;;;5004557;28;20241;-79
2022/05/15 07:14:37;;;;;;;10.20;9.90;;;17.30;99.90;;;;;;5004339;28;20233;-81
2022/05/15 07:17:06;;;;;;;10.27;9.98;;;17.40;99.90;;;;;;5004423;28;20243;-79
2022/05/15 07:19:35;;;;;;;10.38;10.07;;;17.50;99.90;;;;;;5007347;28;20233;-79
2022/05/15 07:22:05;;;;;;;10.30;10.00;;;17.70;99.90;;;;;;5014963;28;20241;-78
2022/05/15 07:24:34;;;;;;;10.32;10.02;;;17.80;99.90;;;;;;5017712;28;20236;-79
2022/05/15 07:27:14;;;;;;;10.10;9.80;;;17.90;99.90;;;;;;5011325;28;20228;-80
2022/05/15 07:29:42;;;;;;;10.23;9.93;;;18.00;99.90;;;;;;5010569;28;20228;-80
2022/05/15 07:32:12;;;;;;;10.25;9.95;;;18.20;99.90;;;;;;5014447;28;20237;-80
2022/05/15 07:34:41;;;;;;;10.25;9.95;;;18.40;99.90;;;;;;5011106;28;20233;-80
2022/05/15 07:37:11;;;;;;;10.50;10.20;;;18.50;99.90;;;;;;5009310;28;20221;-80
2022/05/15 07:39:43;;;;;;;10.48;10.18;;;18.60;99.90;;;;;;5009160;28;20217;-79
2022/05/15 07:42:14;;;;;;;10.35;10.05;;;18.80;99.90;;;;;;5124252;22;20227;-87
2022/05/15 07:44:42;;;;;;;10.70;10.40;;;18.90;99.90;;;;;;5039721;28;20216;-86
2022/05/15 07:47:10;;;;;;;10.88;10.57;;;19.10;99.90;;;;;;5039503;28;20244;-86
2022/05/15 07:49:40;;;;;;;10.52;10.23;;;19.20;99.90;;;;;;5039630;28;20248;-86
2022/05/15 07:52:08;;;;;;;10.48;10.18;;;19.30;99.90;;;;;;5022508;28;20233;-86
2022/05/15 07:54:38;;;;;;;10.60;10.30;;;19.40;99.90;;;;;;5020087;28;20232;-87
2022/05/15 07:57:10;;;;;;;10.40;10.10;;;19.30;99.90;;;;;;5019747;28;20260;-86
2022/05/15 07:59:46;;;;;;;10.52;10.23;;;19.40;99.90;;;;;;5020184;28;20217;-87
2022/05/15 08:02:15;;;;;;;10.80;10.50;;;19.50;99.90;;;;;;5019856;28;20248;-86
2022/05/15 08:10:19;;;;;;;10.68;10.38;;;20.20;99.90;;;;;;5020219;28;20193;-87
2022/05/15 08:12:49;;;;;;;10.80;10.50;;;20.30;99.90;;;;;;5019338;28;20271;-86
2022/05/15 08:15:21;;;;;;;10.63;10.32;;;20.40;99.90;;;;;;5018467;28;20229;-88
2022/05/15 08:17:49;;;;;;;10.55;10.25;;;20.50;99.90;;;;;;5020327;28;20272;-87
2022/05/15 08:25:50;;;;;;;10.77;10.48;;;21.20;99.90;;;;;;5022798;28;20659;-86
2022/05/15 08:28:20;;;;;;;10.93;10.63;;;21.40;99.90;;;;;;5021558;28;20231;-87
2022/05/15 08:31:00;;;;;;;10.85;10.55;;;21.70;99.90;;;;;;5021428;28;20232;-86
2022/05/15 08:33:30;;;;;;;10.30;10.00;;;21.90;99.90;;;;;;5010492;28;20240;-85
2022/05/15 08:35:59;;;;;;;10.55;10.25;;;22.00;99.90;;;;;;5008765;28;20234;-85
2022/05/15 08:38:29;;;;;;;10.80;10.50;;;22.10;99.90;;;;;;5010124;28;20239;-85
2022/05/15 08:41:05;;;;;;;10.77;10.48;;;22.30;99.90;;;;;;5009810;28;20258;-85
2022/05/15 08:43:43;;;;;;;11.00;10.70;;;22.50;99.90;;;;;;5009702;28;20228;-86
2022/05/15 08:49:27;;;;;;;10.50;10.20;;;23.10;99.90;;;;;;5001538;28;20288;-86
2022/05/15 08:52:06;;;;;;;10.50;10.20;;;23.30;99.90;;;;;;5005304;28;20232;-85
2022/05/15 08:57:31;;;;;;;10.70;10.40;;;23.80;99.90;;;;;;5004567;28;20225;-86
2022/05/15 09:00:00;;;;;;;10.73;10.43;;;24.20;99.90;;;;;;5004404;28;20235;-85
2022/05/15 09:02:37;;;;;;;10.60;10.30;;;24.40;99.90;;;;;;5006748;28;20220;-86
2022/05/15 09:05:06;;;;;;;10.40;10.10;;;24.60;99.90;;;;;;5008257;28;20235;-85
2022/05/15 09:07:55;;;;;;;10.52;10.23;;;24.50;99.90;;;;;;5007849;28;20228;-87
2022/05/15 09:10:33;;;;;;;10.38;10.07;;;24.70;99.90;;;;;;5008462;28;20233;-85
2022/05/15 09:13:13;;;;;;;10.30;10.00;;;24.90;99.90;;;;;;5008776;28;20236;-85
2022/05/15 09:15:58;;;;;;;10.30;10.00;;;25.30;99.90;;;;;;5006148;28;20239;-86
2022/05/15 09:18:37;;;;;;;10.25;9.95;;;25.30;99.90;;;;;;5005591;28;20236;-85
2022/05/15 09:21:13;;;;;;;10.60;10.30;;;25.50;99.90;;;;;;5007352;28;20237;-85
2022/05/15 09:23:51;;;;;;;10.65;10.35;;;25.60;99.90;;;;;;5006616;28;20220;-87
2022/05/15 09:26:22;;;;;;;10.50;10.20;;;25.60;99.90;;;;;;5004779;28;20323;-85
2022/05/15 09:31:42;;;;;;;10.73;10.43;;;25.60;99.90;;;;;;5001031;28;20229;-86
2022/05/15 09:34:26;;;;;;;10.63;10.32;;;25.60;99.90;;;;;;5004158;28;20240;-86
2022/05/15 09:38:26;;;;;;;10.30;10.00;;;25.70;99.90;;;;;;5004821;28;20236;-86
2022/05/15 09:39:51;;;;;;;10.45;10.15;;;26.00;99.90;;;;;;5009293;28;20235;-85
2022/05/15 09:45:25;;;;;;;10.35;10.05;;;26.20;99.90;;;;;;5003344;28;20190;-85
2022/05/15 09:48:05;;;;;;;10.50;10.20;;;26.20;99.90;;;;;;5004230;28;20234;-86
2022/05/15 09:51:01;;;;;;;10.82;10.52;;;26.00;99.90;;;;;;5005333;28;20329;-86
2022/05/15 09:53:46;;;;;;;10.60;10.30;;;25.60;99.90;;;;;;5008882;28;20244;-86
2022/05/15 09:56:29;;;;;;;10.55;10.25;;;25.50;99.90;;;;;;5006049;28;20224;-86
2022/05/15 09:59:12;;;;;;;10.45;10.15;;;25.70;99.90;;;;;;5008759;28;20228;-86
2022/05/15 10:01:50;;;;;;;10.45;10.15;;;26.20;99.90;;;;;;5007139;28;20236;-86
2022/05/15 10:04:29;;;;;;;10.50;10.20;;;26.60;99.90;;;;;;5008054;28;20236;-86
2022/05/15 10:07:08;;;;;;;10.70;10.40;;;26.90;99.90;;;;;;5006167;28;20237;-86
2022/05/15 10:09:39;;;;;;;10.50;10.20;;;27.20;99.90;;;;;;5003834;28;20718;-86
2022/05/15 10:12:30;;;;;;;10.70;10.40;;;27.50;99.90;;;;;;5006586;28;20245;-85
2022/05/15 10:15:02;;;;;;;10.52;10.23;;;27.50;99.90;;;;;;4993759;28;20241;-85
2022/05/15 10:17:31;;;;;;;10.50;10.20;;;27.30;99.90;;;;;;5019144;28;20236;-84
2022/05/15 10:20:15;;;;;;;10.40;10.10;;;27.10;99.90;;;;;;5020837;28;20235;-84
2022/05/15 10:22:52;;;;;;;10.30;10.00;;;27.10;99.90;;;;;;5020889;28;20288;-83
2022/05/15 10:25:28;;;;;;;10.45;10.15;;;27.10;99.90;;;;;;5019020;28;20220;-84
2022/05/15 10:28:19;;;;;;;10.35;10.05;;;27.40;99.90;;;;;;5021358;28;20204;-85
2022/05/15 10:31:00;;;;;;;10.40;10.10;;;27.20;99.90;;;;;;5021237;28;20217;-84
2022/05/15 10:33:36;;;;;;;10.52;10.23;;;27.50;99.90;;;;;;5021334;28;20232;-83
2022/05/15 10:36:21;;;;;;;10.27;9.98;;;27.90;99.90;;;;;;5020486;28;20232;-82
2022/05/15 10:39:04;;;;;;;10.30;10.00;;;28.10;99.90;;;;;;5021022;28;20216;-82
2022/05/15 10:41:43;;;;;;;10.40;10.10;;;28.20;99.90;;;;;;5019840;28;20240;-82
2022/05/15 10:44:27;;;;;;;10.70;10.40;;;28.00;99.90;;;;;;5021093;28;20296;-83
2022/05/15 10:47:08;;;;;;;10.35;10.05;;;27.50;99.90;;;;;;5017723;28;20241;-83
2022/05/15 10:50:14;;;;;;;10.50;10.20;;;27.60;99.90;;;;;;5016209;28;20232;-84
2022/05/15 10:53:00;;;;;;;10.40;10.10;;;27.70;99.90;;;;;;5005738;28;20239;-84
2022/05/15 10:58:46;;;;;;;10.57;10.27;;;28.40;99.90;;;;;;5005119;28;20205;-84
2022/05/15 11:01:26;;;;;;;10.40;10.10;;;28.80;99.90;;;;;;5005499;28;20227;-84
2022/05/15 11:04:06;;;;;;;10.18;9.88;;;29.30;99.90;;;;;;5003593;28;20232;-84
2022/05/15 11:07:01;;;;;;;10.27;9.98;;;29.70;99.90;;;;;;5003515;28;20236;-84
2022/05/15 11:09:39;;;;;;;10.20;9.90;;;30.00;99.90;;;;;;5003702;28;20260;-84
2022/05/15 11:12:33;;;;;;;10.45;10.15;;;30.30;99.90;;;;;;5003614;28;20233;-84
2022/05/15 11:15:31;;;;;;;10.55;10.25;;;30.40;99.90;;;;;;5003440;28;20236;-83
2022/05/15 11:18:09;;;;;;;10.88;10.57;;;30.30;99.90;;;;;;5003508;28;20264;-84
2022/05/15 11:20:42;;;;;;;10.50;10.20;;;30.40;99.90;;;;;;5002511;28;20264;-84
2022/05/15 11:23:16;;;;;;;10.52;10.23;;;30.30;99.90;;;;;;5003229;28;20229;-84
2022/05/15 11:25:51;;;;;;;10.50;10.20;;;29.90;99.90;;;;;;5002482;28;20237;-83
2022/05/15 11:28:42;;;;;;;10.60;10.30;;;29.40;99.90;;;;;;5152329;27;1465504;-83
2022/05/15 11:31:14;;;;;;;10.55;10.25;;;28.90;99.90;;;;;;5174293;27;20254;-83
2022/05/15 11:33:55;;;;;;;10.45;10.15;;;28.80;99.90;;;;;;5162558;27;20220;-83
2022/05/15 11:36:37;;;;;;;10.10;9.80;;;29.00;99.90;;;;;;5160355;27;20224;-83
2022/05/15 11:39:24;;;;;;;10.68;10.38;;;29.40;99.90;;;;;;5160883;27;20231;-84
2022/05/15 11:42:17;;;;;;;10.30;10.00;;;29.50;99.90;;;;;;5161182;27;20231;-84
2022/05/15 11:44:48;;;;;;;10.60;10.30;;;29.30;99.90;;;;;;5160087;27;20263;-83
2022/05/15 11:47:33;;;;;;;10.35;10.05;;;29.40;99.90;;;;;;5160499;27;20245;-83
2022/05/15 11:50:09;;;;;;;10.43;10.13;;;29.70;99.90;;;;;;5160462;27;20228;-84
2022/05/15 11:52:42;;;;;;;10.65;10.35;;;30.10;99.90;;;;;;5160419;27;20238;-84
2022/05/15 11:55:44;;;;;;;10.75;10.45;;;30.40;99.90;;;;;;5162588;27;20231;-83
2022/05/15 11:58:34;;;;;;;10.60;10.30;;;30.40;99.90;;;;;;5160874;27;20226;-84
2022/05/15 12:01:42;;;;;;;10.50;10.20;;;30.70;99.90;;;;;;5159806;27;20253;-83
2022/05/15 12:04:20;;;;;;;10.50;10.20;;;30.90;99.90;;;;;;5159892;27;20277;-83
2022/05/15 12:06:51;;;;;;;10.57;10.27;;;31.00;99.60;;;;;;5160116;27;20321;-84
2022/05/15 12:09:35;;;;;;;10.50;10.20;;;30.80;99.90;;;;;;5159690;27;20321;-82
2022/05/15 12:12:46;;;;;;;10.43;10.13;;;30.70;99.90;;;;;;5158144;27;20235;-83
2022/05/15 12:15:36;;;;;;;10.30;10.00;;;30.70;99.90;;;;;;5160421;27;20231;-84
2022/05/15 12:18:27;;;;;;;10.35;10.05;;;30.60;99.90;;;;;;5165302;27;20223;-83
2022/05/15 12:20:57;;;;;;;10.57;10.27;;;30.40;99.90;;;;;;5164757;27;20223;-83
2022/05/15 12:23:32;;;;;;;10.77;10.48;;;30.70;99.90;;;;;;5163415;27;20224;-84
2022/05/15 12:26:10;;;;;;;10.55;10.25;;;31.00;99.90;;;;;;5162633;27;20223;-84
2022/05/15 12:28:53;;;;;;;10.50;10.20;;;31.10;99.90;;;;;;5159830;27;20292;-84
2022/05/15 12:31:26;;;;;;;10.93;10.63;;;31.30;99.90;;;;;;5161270;27;20228;-83
2022/05/15 12:33:57;;;;;;;11.00;10.70;;;31.40;99.90;;;;;;5161428;27;20228;-85
2022/05/15 12:36:34;;;;;;;11.10;10.80;;;31.60;99.20;;;;;;5160292;27;20273;-84
2022/05/15 12:39:03;;;;;;;10.65;10.35;;;31.70;99.20;;;;;;5151802;27;20247;-85
2022/05/15 12:41:37;;;;;;;11.00;10.70;;;31.70;99.30;;;;;;5146671;27;20224;-85
2022/05/15 12:44:08;;;;;;;11.10;10.80;;;31.40;98.80;;;;;;5145994;27;20319;-85
2022/05/15 12:46:39;;;;;;;10.95;10.65;;;31.20;97.20;;;;;;5146886;27;20224;-85
2022/05/15 12:49:10;;;;;;;10.60;10.30;;;30.90;96.70;;;;;;5146365;27;20236;-85
2022/05/15 12:51:41;;;;;;;11.00;10.70;;;30.90;96.60;;;;;;5146318;27;20232;-85
2022/05/15 12:54:28;;;;;;;10.90;10.60;;;30.80;98.00;;;;;;5147130;27;20228;-85
2022/05/15 12:57:02;;;;;;;10.85;10.55;;;31.00;99.90;;;;;;5146697;27;20231;-83
2022/05/15 12:59:36;;;;;;;10.88;10.57;;;31.40;99.90;;;;;;5146402;27;20220;-85
2022/05/15 13:02:21;;;;;;;10.77;10.48;;;32.10;97.00;;;;;;5145726;27;20260;-84
2022/05/15 13:04:53;;;;;;;10.60;10.30;;;32.80;96.90;;;;;;5146930;27;20307;-82
2022/05/15 13:07:25;;;;;;;10.50;10.20;;;33.30;96.60;;;;;;5146345;27;20270;-83
2022/05/15 13:10:04;;;;;;;10.55;10.25;;;32.90;94.90;;;;;;5146007;27;20259;-82
2022/05/15 13:12:33;;;;;;;10.40;10.10;;;32.90;94.30;;;;;;5145737;27;20216;-83
2022/05/15 13:15:03;;;;;;;10.50;10.20;;;32.90;96.30;;;;;;5144980;27;20224;-85
2022/05/15 13:17:37;;;;;;;10.77;10.48;;;32.90;94.40;;;;;;5144683;27;20289;-83
2022/05/15 13:20:17;;;;;;;10.55;10.25;;;32.80;94.10;;;;;;5144949;27;20261;-83
2022/05/15 13:22:45;;;;;;;10.48;10.18;;;33.10;93.60;;;;;;5144855;27;20224;-84
2022/05/15 13:25:17;;;;;;;10.50;10.20;;;33.10;93.60;;;;;;5144866;27;20223;-83
2022/05/15 13:27:47;;;;;;;10.38;10.07;;;32.80;91.40;;;;;;5144271;27;20228;-84
2022/05/15 13:30:20;;;;;;;10.60;10.30;;;32.80;91.20;;;;;;5143598;27;20235;-84
2022/05/15 13:32:49;;;;;;;10.77;10.48;;;32.50;90.50;;;;;;5145292;27;20276;-84
2022/05/15 13:35:19;;;;;;;10.50;10.20;;;32.10;92.70;;;;;;5155119;27;20238;-83
2022/05/15 13:37:54;;;;;;;10.70;10.40;;;31.90;90.60;;;;;;5146290;27;20236;-84
2022/05/15 13:46:03;;;;;;;10.70;10.40;;;31.90;91.50;;;;;;5089606;28;20249;-80
2022/05/15 13:49:00;;;;;;;10.70;10.40;;;32.10;92.90;;;;;;5091569;28;20245;-81
2022/05/15 13:51:46;;;;;;;10.70;10.40;;;32.20;92.30;;;;;;5088989;28;20226;-80
2022/05/15 13:54:27;;;;;;;10.50;10.20;;;32.50;93.30;;;;;;5090075;28;20218;-80
2022/05/15 13:57:08;;;;;;;10.50;10.20;;;32.20;91.40;;;;;;5095933;28;20295;-79
2022/05/15 13:59:41;;;;;;;10.40;10.10;;;32.20;92.90;;;;;;5100515;28;20237;-80
2022/05/15 14:02:22;;;;;;;10.45;10.15;;;31.90;92.10;;;;;;5098488;28;20218;-80
2022/05/15 14:05:15;;;;;;;10.48;10.18;;;31.90;93.20;;;;;;5093798;28;20218;-80
2022/05/15 14:07:54;;;;;;;10.50;10.20;;;32.20;92.60;;;;;;5092336;28;20261;-79
2022/05/15 14:10:24;;;;;;;10.57;10.27;;;32.70;93.10;;;;;;5090996;28;20280;-80
2022/05/15 14:13:04;;;;;;;10.80;10.50;;;33.10;91.80;;;;;;5091633;28;20288;-80